TVS3218 LKPR-HEGN
Flight info
| Callsign | TVS3218 |
|---|---|
| Flight time | 3h 41m |
| Altitude | 35000 |
| Route | VOZ DCT LIKSA DCT PEPIK DCT XOMBA DCT KEROP DCT NISVA Y505 NIKTI UN127 LOPTI/N0445F370 UN127 LMO UL618 MES UN139 KPC UL54 PAXIS L607 NABSI P557 OBRAN L321 REXUM M872 HGD |
| Aircraft | B738/M-SDFGHIJ1LORVWXYZ/LB1 |
Departure
| Time | 2026-05-04 13:56 |
|---|---|
| Airport | Václav Havel Airport Prague (LKPR) |
Arrival
| Time | 2026-05-04 17:38 |
|---|---|
| Airport | Hurghada International Airport (HEGN) |
| Time | Latitude | Longitude | Altitude | Speed | Heading |
|---|---|---|---|---|---|
| 2026-05-04 13:32 | 50.10484 | 14.26480 | 1169 ft | 0 kts | 34° |
| 2026-05-04 13:44 | 50.10484 | 14.26479 | 1173 ft | 1 kts | 34° |
| 2026-05-04 13:44 | 50.10472 | 14.26467 | 1169 ft | 3 kts | 23° |
| 2026-05-04 13:45 | 50.10453 | 14.26460 | 1171 ft | 3 kts | 351° |
| 2026-05-04 13:45 | 50.10437 | 14.26470 | 1168 ft | 3 kts | 313° |
| 2026-05-04 13:45 | 50.10432 | 14.26478 | 1168 ft | 1 kts | 304° |
| 2026-05-04 13:48 | 50.10433 | 14.26476 | 1168 ft | 2 kts | 304° |
| 2026-05-04 13:48 | 50.10459 | 14.26417 | 1172 ft | 11 kts | 304° |
| 2026-05-04 13:48 | 50.10512 | 14.26298 | 1169 ft | 14 kts | 303° |
| 2026-05-04 13:49 | 50.10538 | 14.26211 | 1171 ft | 13 kts | 281° |
| 2026-05-04 13:49 | 50.10573 | 14.26104 | 1170 ft | 13 kts | 309° |
| 2026-05-04 13:49 | 50.10541 | 14.25983 | 1173 ft | 15 kts | 209° |
| 2026-05-04 13:49 | 50.10461 | 14.26057 | 1174 ft | 15 kts | 127° |
| 2026-05-04 13:50 | 50.10390 | 14.26202 | 1175 ft | 19 kts | 127° |
| 2026-05-04 13:50 | 50.10301 | 14.26389 | 1176 ft | 24 kts | 127° |
| 2026-05-04 13:50 | 50.10193 | 14.26609 | 1176 ft | 27 kts | 122° |
| 2026-05-04 13:50 | 50.10086 | 14.26834 | 1186 ft | 25 kts | 126° |
| 2026-05-04 13:51 | 50.09984 | 14.27042 | 1196 ft | 23 kts | 127° |
| 2026-05-04 13:51 | 50.09891 | 14.27235 | 1203 ft | 19 kts | 127° |
| 2026-05-04 13:51 | 50.09803 | 14.27388 | 1203 ft | 19 kts | 136° |
| 2026-05-04 13:51 | 50.09712 | 14.27528 | 1205 ft | 18 kts | 135° |
| 2026-05-04 13:52 | 50.09525 | 14.27816 | 1212 ft | 22 kts | 134° |
| 2026-05-04 13:52 | 50.09402 | 14.28004 | 1214 ft | 29 kts | 136° |
| 2026-05-04 13:52 | 50.09277 | 14.28195 | 1213 ft | 22 kts | 135° |
| 2026-05-04 13:53 | 50.09186 | 14.28286 | 1210 ft | 14 kts | 179° |
| 2026-05-04 13:53 | 50.09106 | 14.28212 | 1210 ft | 13 kts | 224° |
| 2026-05-04 13:53 | 50.09070 | 14.28113 | 1207 ft | 7 kts | 297° |
| 2026-05-04 13:54 | 50.09085 | 14.28081 | 1207 ft | 0 kts | 307° |
| 2026-05-04 13:55 | 50.09423 | 14.27384 | 1209 ft | 104 kts | 307° |
| 2026-05-04 13:55 | 50.09979 | 14.26237 | 1196 ft | 160 kts | 307° |
| 2026-05-04 13:56 | 50.10722 | 14.24770 | 1587 ft | 179 kts | 309° |
| 2026-05-04 13:56 | 50.11527 | 14.23301 | 2415 ft | 177 kts | 308° |
| 2026-05-04 13:56 | 50.13043 | 14.19985 | 3624 ft | 206 kts | 301° |
| 2026-05-04 13:57 | 50.13899 | 14.18128 | 4186 ft | 210 kts | 305° |
| 2026-05-04 13:57 | 50.14795 | 14.16264 | 4645 ft | 220 kts | 305° |
| 2026-05-04 13:58 | 50.17866 | 14.09632 | 5968 ft | 268 kts | 292° |
| 2026-05-04 13:58 | 50.17609 | 14.04090 | 7484 ft | 268 kts | 237° |
| 2026-05-04 13:58 | 50.16354 | 14.01960 | 8294 ft | 269 kts | 219° |
| 2026-05-04 13:59 | 50.14852 | 14.00200 | 9059 ft | 271 kts | 217° |
| 2026-05-04 13:59 | 50.13217 | 13.98732 | 9836 ft | 275 kts | 199° |
| 2026-05-04 13:59 | 50.09271 | 13.99414 | 10568 ft | 319 kts | 156° |
| 2026-05-04 14:00 | 50.07404 | 14.01505 | 10769 ft | 344 kts | 140° |
| 2026-05-04 14:00 | 50.03976 | 14.06977 | 11972 ft | 357 kts | 136° |
| 2026-05-04 14:00 | 50.02270 | 14.09803 | 12694 ft | 360 kts | 136° |
| 2026-05-04 14:01 | 50.00549 | 14.12639 | 13396 ft | 363 kts | 137° |
| 2026-05-04 14:01 | 49.98801 | 14.15489 | 14034 ft | 367 kts | 137° |
| 2026-05-04 14:01 | 49.95239 | 14.21243 | 15295 ft | 372 kts | 137° |
| 2026-05-04 14:02 | 49.93429 | 14.24140 | 15853 ft | 376 kts | 137° |
| 2026-05-04 14:02 | 49.91594 | 14.27065 | 16401 ft | 380 kts | 137° |
| 2026-05-04 14:02 | 49.89739 | 14.30016 | 17008 ft | 383 kts | 137° |
| 2026-05-04 14:02 | 49.87875 | 14.32980 | 17619 ft | 386 kts | 137° |
| 2026-05-04 14:03 | 49.85993 | 14.35968 | 18191 ft | 389 kts | 137° |
| 2026-05-04 14:03 | 49.84095 | 14.38978 | 18687 ft | 393 kts | 137° |
| 2026-05-04 14:03 | 49.82181 | 14.42011 | 19220 ft | 395 kts | 137° |
| 2026-05-04 14:03 | 49.80249 | 14.45069 | 19723 ft | 398 kts | 137° |
| 2026-05-04 14:04 | 49.76350 | 14.51228 | 20718 ft | 404 kts | 137° |
| 2026-05-04 14:04 | 49.74377 | 14.54339 | 21202 ft | 406 kts | 137° |
| 2026-05-04 14:04 | 49.72389 | 14.57470 | 21672 ft | 409 kts | 137° |
| 2026-05-04 14:05 | 49.68368 | 14.63790 | 22549 ft | 416 kts | 137° |
| 2026-05-04 14:05 | 49.66336 | 14.66979 | 23018 ft | 418 kts | 137° |
| 2026-05-04 14:05 | 49.64290 | 14.70185 | 23478 ft | 421 kts | 137° |
| 2026-05-04 14:06 | 49.62230 | 14.73410 | 23849 ft | 423 kts | 137° |
| 2026-05-04 14:06 | 49.60155 | 14.76654 | 24198 ft | 426 kts | 137° |
| 2026-05-04 14:06 | 49.58066 | 14.79918 | 24556 ft | 429 kts | 137° |
| 2026-05-04 14:06 | 49.55964 | 14.83195 | 24907 ft | 431 kts | 137° |
| 2026-05-04 14:07 | 49.53894 | 14.86568 | 25247 ft | 436 kts | 131° |
| 2026-05-04 14:07 | 49.52166 | 14.90353 | 25572 ft | 441 kts | 121° |
| 2026-05-04 14:07 | 49.50757 | 14.94559 | 25907 ft | 444 kts | 118° |
| 2026-05-04 14:07 | 49.49371 | 14.98904 | 26185 ft | 448 kts | 117° |
| 2026-05-04 14:08 | 49.47999 | 15.03222 | 26494 ft | 451 kts | 117° |
| 2026-05-04 14:08 | 49.46613 | 15.07557 | 26836 ft | 453 kts | 118° |
| 2026-05-04 14:08 | 49.45229 | 15.11843 | 27159 ft | 455 kts | 118° |
| 2026-05-04 14:08 | 49.43790 | 15.16256 | 27458 ft | 457 kts | 118° |
| 2026-05-04 14:09 | 49.40926 | 15.24969 | 28047 ft | 462 kts | 118° |
| 2026-05-04 14:09 | 49.39473 | 15.29369 | 28363 ft | 463 kts | 118° |
| 2026-05-04 14:10 | 49.36537 | 15.38231 | 28889 ft | 468 kts | 118° |
| 2026-05-04 14:10 | 49.35056 | 15.42692 | 29152 ft | 471 kts | 118° |
| 2026-05-04 14:10 | 49.33565 | 15.47176 | 29439 ft | 472 kts | 118° |
| 2026-05-04 14:10 | 49.32069 | 15.51667 | 29745 ft | 473 kts | 118° |
| 2026-05-04 14:11 | 49.30572 | 15.56155 | 30119 ft | 472 kts | 118° |
| 2026-05-04 14:11 | 49.27586 | 15.65085 | 30770 ft | 470 kts | 118° |
| 2026-05-04 14:11 | 49.26091 | 15.69543 | 31061 ft | 471 kts | 118° |
| 2026-05-04 14:12 | 49.24596 | 15.73992 | 31365 ft | 470 kts | 118° |
| 2026-05-04 14:12 | 49.23104 | 15.78427 | 31748 ft | 467 kts | 118° |
| 2026-05-04 14:12 | 49.20130 | 15.87242 | 32319 ft | 467 kts | 118° |
| 2026-05-04 14:13 | 49.18637 | 15.91657 | 32562 ft | 467 kts | 118° |
| 2026-05-04 14:13 | 49.17146 | 15.96060 | 32876 ft | 466 kts | 118° |
| 2026-05-04 14:13 | 49.15653 | 16.00458 | 33183 ft | 465 kts | 118° |
| 2026-05-04 14:13 | 49.14161 | 16.04841 | 33457 ft | 465 kts | 118° |
| 2026-05-04 14:14 | 49.12665 | 16.09220 | 33690 ft | 465 kts | 118° |
| 2026-05-04 14:14 | 49.09683 | 16.17924 | 34327 ft | 460 kts | 118° |
| 2026-05-04 14:14 | 49.08199 | 16.22246 | 34538 ft | 460 kts | 118° |
| 2026-05-04 14:15 | 49.05218 | 16.30911 | 34881 ft | 462 kts | 118° |
| 2026-05-04 14:15 | 49.02222 | 16.39593 | 34977 ft | 464 kts | 118° |
| 2026-05-04 14:16 | 48.97719 | 16.52588 | 34993 ft | 461 kts | 118° |
| 2026-05-04 14:17 | 48.93231 | 16.65473 | 34986 ft | 458 kts | 118° |
| 2026-05-04 14:18 | 48.88769 | 16.78222 | 34990 ft | 457 kts | 118° |
| 2026-05-04 14:19 | 48.82794 | 16.95204 | 34980 ft | 456 kts | 118° |
| 2026-05-04 14:19 | 48.79740 | 17.03638 | 34992 ft | 456 kts | 124° |
| 2026-05-04 14:20 | 48.75497 | 17.10690 | 34985 ft | 453 kts | 143° |
| 2026-05-04 14:20 | 48.70253 | 17.15955 | 34998 ft | 453 kts | 149° |
| 2026-05-04 14:21 | 48.62249 | 17.23600 | 34989 ft | 455 kts | 149° |
| 2026-05-04 14:21 | 48.56910 | 17.28762 | 34997 ft | 456 kts | 149° |
| 2026-05-04 14:22 | 48.51565 | 17.33947 | 34997 ft | 457 kts | 149° |
| 2026-05-04 14:22 | 48.46202 | 17.39142 | 34995 ft | 459 kts | 149° |
| 2026-05-04 14:23 | 48.38133 | 17.46932 | 34986 ft | 460 kts | 149° |
| 2026-05-04 14:24 | 48.32746 | 17.52114 | 34993 ft | 459 kts | 149° |
| 2026-05-04 14:24 | 48.27378 | 17.57265 | 35003 ft | 457 kts | 148° |
| 2026-05-04 14:25 | 48.22024 | 17.62388 | 34989 ft | 456 kts | 148° |
| 2026-05-04 14:25 | 48.14022 | 17.70023 | 34994 ft | 454 kts | 149° |
| 2026-05-04 14:26 | 48.08701 | 17.75083 | 35010 ft | 453 kts | 148° |
| 2026-05-04 14:26 | 48.03382 | 17.80130 | 35018 ft | 453 kts | 148° |
| 2026-05-04 14:27 | 47.98047 | 17.85179 | 35024 ft | 454 kts | 148° |
| 2026-05-04 14:27 | 47.92693 | 17.90234 | 35033 ft | 456 kts | 148° |
| 2026-05-04 14:28 | 47.87314 | 17.95299 | 35024 ft | 458 kts | 148° |
| 2026-05-04 14:28 | 47.81918 | 18.00371 | 35026 ft | 459 kts | 148° |
| 2026-05-04 14:29 | 47.71220 | 18.10817 | 35027 ft | 461 kts | 144° |
| 2026-05-04 14:30 | 47.66092 | 18.16410 | 35036 ft | 460 kts | 144° |
| 2026-05-04 14:31 | 47.58325 | 18.24843 | 35031 ft | 459 kts | 144° |
| 2026-05-04 14:32 | 47.48018 | 18.35851 | 35061 ft | 458 kts | 144° |
| 2026-05-04 14:32 | 47.42843 | 18.41350 | 35048 ft | 458 kts | 144° |
| 2026-05-04 14:33 | 47.37666 | 18.46838 | 35062 ft | 458 kts | 144° |
| 2026-05-04 14:33 | 47.32482 | 18.52322 | 35052 ft | 458 kts | 144° |
| 2026-05-04 14:34 | 47.27301 | 18.57789 | 35071 ft | 458 kts | 144° |
| 2026-05-04 14:34 | 47.22115 | 18.63247 | 35054 ft | 458 kts | 144° |
| 2026-05-04 14:35 | 47.17769 | 18.67811 | 35059 ft | 458 kts | 144° |
| 2026-05-04 14:35 | 47.12620 | 18.73206 | 35058 ft | 458 kts | 144° |
| 2026-05-04 14:36 | 47.07437 | 18.78625 | 35052 ft | 457 kts | 144° |
| 2026-05-04 14:36 | 47.02250 | 18.84033 | 35066 ft | 457 kts | 144° |
| 2026-05-04 14:37 | 46.97064 | 18.89428 | 35053 ft | 457 kts | 144° |
| 2026-05-04 14:37 | 46.91874 | 18.94814 | 35061 ft | 457 kts | 144° |
| 2026-05-04 14:38 | 46.86683 | 19.00188 | 35058 ft | 457 kts | 144° |
| 2026-05-04 14:38 | 46.81481 | 19.05560 | 35051 ft | 458 kts | 144° |
| 2026-05-04 14:39 | 46.76282 | 19.10916 | 35054 ft | 458 kts | 144° |
| 2026-05-04 14:39 | 46.71071 | 19.16272 | 35066 ft | 458 kts | 144° |
| 2026-05-04 14:40 | 46.63240 | 19.24296 | 35060 ft | 459 kts | 144° |
| 2026-05-04 14:40 | 46.58009 | 19.29640 | 35055 ft | 460 kts | 144° |
| 2026-05-04 14:41 | 46.52764 | 19.34985 | 35057 ft | 461 kts | 143° |
| 2026-05-04 14:42 | 46.42247 | 19.45665 | 35062 ft | 462 kts | 144° |
| 2026-05-04 14:42 | 46.36976 | 19.50999 | 35068 ft | 463 kts | 144° |
| 2026-05-04 14:43 | 46.31730 | 19.56294 | 35070 ft | 463 kts | 144° |
| 2026-05-04 14:43 | 46.26439 | 19.61624 | 35071 ft | 464 kts | 143° |
| 2026-05-04 14:44 | 46.21144 | 19.66946 | 35075 ft | 464 kts | 144° |
| 2026-05-04 14:44 | 46.15847 | 19.72287 | 35074 ft | 464 kts | 143° |
| 2026-05-04 14:45 | 46.10592 | 19.77711 | 35078 ft | 465 kts | 143° |
| 2026-05-04 14:45 | 46.05343 | 19.83144 | 35068 ft | 465 kts | 143° |
| 2026-05-04 14:46 | 46.00089 | 19.88557 | 35075 ft | 464 kts | 143° |
| 2026-05-04 14:46 | 45.94836 | 19.93946 | 35077 ft | 464 kts | 143° |
| 2026-05-04 14:47 | 45.89582 | 19.99318 | 35075 ft | 464 kts | 143° |
| 2026-05-04 14:47 | 45.84326 | 20.04680 | 35073 ft | 463 kts | 143° |
| 2026-05-04 14:48 | 45.79072 | 20.10027 | 35074 ft | 463 kts | 143° |
| 2026-05-04 14:48 | 45.73817 | 20.15363 | 35078 ft | 463 kts | 143° |
| 2026-05-04 14:49 | 45.68555 | 20.20695 | 35081 ft | 463 kts | 143° |
| 2026-05-04 14:49 | 45.63290 | 20.26016 | 35084 ft | 464 kts | 143° |
| 2026-05-04 14:50 | 45.58024 | 20.31326 | 35098 ft | 464 kts | 143° |
| 2026-05-04 14:50 | 45.52745 | 20.36636 | 35083 ft | 464 kts | 143° |
| 2026-05-04 14:51 | 45.47466 | 20.41934 | 35087 ft | 464 kts | 143° |
| 2026-05-04 14:51 | 45.42178 | 20.47229 | 35090 ft | 465 kts | 143° |
| 2026-05-04 14:52 | 45.36886 | 20.52515 | 35090 ft | 465 kts | 143° |
| 2026-05-04 14:52 | 45.31589 | 20.57793 | 35102 ft | 465 kts | 143° |
| 2026-05-04 14:53 | 45.26289 | 20.63064 | 35084 ft | 465 kts | 143° |
| 2026-05-04 14:53 | 45.20988 | 20.68322 | 35091 ft | 465 kts | 143° |
| 2026-05-04 14:54 | 45.15717 | 20.73538 | 35089 ft | 465 kts | 143° |
| 2026-05-04 14:54 | 45.10413 | 20.78776 | 35107 ft | 465 kts | 143° |
| 2026-05-04 14:55 | 45.05108 | 20.84002 | 35091 ft | 465 kts | 143° |
| 2026-05-04 14:55 | 44.99778 | 20.89241 | 35097 ft | 470 kts | 143° |
| 2026-05-04 14:56 | 44.94363 | 20.94553 | 35100 ft | 478 kts | 143° |
| 2026-05-04 14:56 | 44.88859 | 20.99938 | 35099 ft | 485 kts | 143° |
| 2026-05-04 14:57 | 44.83282 | 21.05381 | 35096 ft | 491 kts | 143° |
| 2026-05-04 14:57 | 44.77650 | 21.10863 | 35087 ft | 494 kts | 143° |
| 2026-05-04 14:58 | 44.71984 | 21.16365 | 35089 ft | 495 kts | 143° |
| 2026-05-04 14:58 | 44.66309 | 21.21862 | 35089 ft | 495 kts | 143° |
| 2026-05-04 14:59 | 44.60655 | 21.27326 | 35086 ft | 491 kts | 143° |
| 2026-05-04 15:00 | 44.52286 | 21.35389 | 35079 ft | 485 kts | 143° |
| 2026-05-04 15:00 | 44.46730 | 21.40729 | 35093 ft | 484 kts | 143° |
| 2026-05-04 15:01 | 44.38384 | 21.48725 | 35102 ft | 485 kts | 143° |
| 2026-05-04 15:01 | 44.32835 | 21.54025 | 35092 ft | 483 kts | 143° |
| 2026-05-04 15:02 | 44.27289 | 21.59310 | 35083 ft | 483 kts | 143° |
| 2026-05-04 15:02 | 44.21779 | 21.64549 | 35104 ft | 483 kts | 143° |
| 2026-05-04 15:03 | 44.16221 | 21.69821 | 35109 ft | 484 kts | 143° |
| 2026-05-04 15:03 | 44.10658 | 21.75086 | 35093 ft | 483 kts | 143° |
| 2026-05-04 15:04 | 44.05094 | 21.80339 | 35096 ft | 483 kts | 143° |
| 2026-05-04 15:04 | 43.99534 | 21.85577 | 35088 ft | 483 kts | 143° |
| 2026-05-04 15:05 | 43.93971 | 21.90805 | 35110 ft | 483 kts | 143° |
| 2026-05-04 15:05 | 43.88409 | 21.96020 | 35089 ft | 482 kts | 143° |
| 2026-05-04 15:06 | 43.82855 | 22.01215 | 35080 ft | 481 kts | 143° |
| 2026-05-04 15:07 | 43.74521 | 22.08990 | 35078 ft | 481 kts | 143° |
| 2026-05-04 15:07 | 43.68956 | 22.14167 | 35084 ft | 482 kts | 143° |
| 2026-05-04 15:08 | 43.63392 | 22.19332 | 35078 ft | 482 kts | 143° |
| 2026-05-04 15:08 | 43.57821 | 22.24490 | 35081 ft | 482 kts | 143° |
| 2026-05-04 15:09 | 43.52248 | 22.29639 | 35076 ft | 483 kts | 143° |
| 2026-05-04 15:09 | 43.46666 | 22.34785 | 35093 ft | 483 kts | 144° |
| 2026-05-04 15:10 | 43.38305 | 22.42470 | 35083 ft | 482 kts | 144° |
| 2026-05-04 15:11 | 43.29947 | 22.50127 | 35081 ft | 481 kts | 144° |
| 2026-05-04 15:11 | 43.24378 | 22.55215 | 35099 ft | 480 kts | 144° |
| 2026-05-04 15:12 | 43.18830 | 22.60273 | 35086 ft | 478 kts | 144° |
| 2026-05-04 15:12 | 43.13302 | 22.65301 | 35093 ft | 476 kts | 144° |
| 2026-05-04 15:13 | 43.07791 | 22.70303 | 35096 ft | 475 kts | 144° |
| 2026-05-04 15:13 | 43.02322 | 22.75259 | 35100 ft | 474 kts | 144° |
| 2026-05-04 15:14 | 42.96848 | 22.80224 | 35101 ft | 471 kts | 143° |
| 2026-05-04 15:14 | 42.91566 | 22.85494 | 35095 ft | 470 kts | 141° |
| 2026-05-04 15:15 | 42.86371 | 22.90893 | 35095 ft | 469 kts | 141° |
| 2026-05-04 15:15 | 42.81176 | 22.96244 | 35101 ft | 467 kts | 142° |
| 2026-05-04 15:16 | 42.73401 | 23.04158 | 35091 ft | 464 kts | 141° |
| 2026-05-04 15:17 | 42.65646 | 23.12010 | 35104 ft | 463 kts | 141° |
| 2026-05-04 15:17 | 42.57918 | 23.19812 | 35090 ft | 460 kts | 143° |
| 2026-05-04 15:18 | 42.52786 | 23.24978 | 35108 ft | 459 kts | 142° |
| 2026-05-04 15:19 | 42.45095 | 23.32705 | 35102 ft | 459 kts | 142° |
| 2026-05-04 15:19 | 42.37399 | 23.40410 | 35101 ft | 459 kts | 142° |
| 2026-05-04 15:20 | 42.32298 | 23.45508 | 35095 ft | 460 kts | 142° |
| 2026-05-04 15:20 | 42.27946 | 23.49739 | 35109 ft | 461 kts | 145° |
| 2026-05-04 15:21 | 42.21659 | 23.55175 | 35107 ft | 462 kts | 147° |
| 2026-05-04 15:22 | 42.13483 | 23.62099 | 35103 ft | 463 kts | 147° |
| 2026-05-04 15:22 | 42.06237 | 23.68307 | 35097 ft | 464 kts | 146° |
| 2026-05-04 15:23 | 42.00747 | 23.73017 | 35095 ft | 465 kts | 147° |
| 2026-05-04 15:23 | 41.95331 | 23.77651 | 35109 ft | 464 kts | 146° |
| 2026-05-04 15:24 | 41.84461 | 23.86922 | 35077 ft | 462 kts | 146° |
| 2026-05-04 15:25 | 41.79034 | 23.91536 | 35081 ft | 462 kts | 146° |
| 2026-05-04 15:26 | 41.70876 | 23.98454 | 35069 ft | 463 kts | 147° |
| 2026-05-04 15:26 | 41.62714 | 24.05356 | 35065 ft | 463 kts | 147° |
| 2026-05-04 15:27 | 41.54544 | 24.12241 | 35073 ft | 463 kts | 146° |
| 2026-05-04 15:28 | 41.46512 | 24.19366 | 35051 ft | 462 kts | 143° |
| 2026-05-04 15:29 | 41.38523 | 24.26535 | 35051 ft | 462 kts | 144° |
| 2026-05-04 15:30 | 41.19766 | 24.43151 | 35045 ft | 464 kts | 146° |
| 2026-05-04 15:31 | 41.11082 | 24.48945 | 35043 ft | 468 kts | 154° |
| 2026-05-04 15:32 | 40.96369 | 24.58254 | 35052 ft | 470 kts | 153° |
| 2026-05-04 15:34 | 40.81602 | 24.67594 | 35052 ft | 472 kts | 152° |
| 2026-05-04 15:34 | 40.72706 | 24.73236 | 35052 ft | 473 kts | 151° |
| 2026-05-04 15:35 | 40.63834 | 24.78941 | 35050 ft | 473 kts | 153° |
| 2026-05-04 15:36 | 40.54933 | 24.84533 | 35048 ft | 472 kts | 153° |
| 2026-05-04 15:36 | 40.49015 | 24.88249 | 35051 ft | 471 kts | 153° |
| 2026-05-04 15:37 | 40.43102 | 24.91963 | 35052 ft | 471 kts | 153° |
| 2026-05-04 15:37 | 40.37168 | 24.95671 | 35172 ft | 473 kts | 153° |
| 2026-05-04 15:38 | 40.34201 | 24.97522 | 35332 ft | 473 kts | 153° |
| 2026-05-04 15:38 | 40.31229 | 24.99377 | 35460 ft | 473 kts | 153° |
| 2026-05-04 15:38 | 40.28258 | 25.01229 | 35568 ft | 474 kts | 153° |
| 2026-05-04 15:38 | 40.25268 | 25.03092 | 35609 ft | 477 kts | 153° |
| 2026-05-04 15:39 | 40.19254 | 25.06834 | 35829 ft | 478 kts | 153° |
| 2026-05-04 15:39 | 40.13243 | 25.10565 | 36106 ft | 479 kts | 153° |
| 2026-05-04 15:40 | 40.10234 | 25.12431 | 36227 ft | 479 kts | 153° |
| 2026-05-04 15:40 | 40.07238 | 25.14287 | 36589 ft | 474 kts | 153° |
| 2026-05-04 15:40 | 40.04273 | 25.16121 | 36961 ft | 469 kts | 154° |
| 2026-05-04 15:40 | 40.01325 | 25.17944 | 37069 ft | 470 kts | 154° |
| 2026-05-04 15:41 | 39.98373 | 25.19768 | 37078 ft | 469 kts | 154° |
| 2026-05-04 15:41 | 39.92499 | 25.23384 | 37068 ft | 464 kts | 155° |
| 2026-05-04 15:42 | 39.86446 | 25.26206 | 37079 ft | 461 kts | 162° |
| 2026-05-04 15:42 | 39.80300 | 25.28609 | 37075 ft | 460 kts | 163° |
| 2026-05-04 15:43 | 39.74175 | 25.31024 | 37069 ft | 460 kts | 162° |
| 2026-05-04 15:43 | 39.68062 | 25.33493 | 37090 ft | 460 kts | 162° |
| 2026-05-04 15:44 | 39.61933 | 25.35993 | 37079 ft | 462 kts | 162° |
| 2026-05-04 15:44 | 39.55784 | 25.38499 | 37075 ft | 464 kts | 162° |
| 2026-05-04 15:45 | 39.49614 | 25.41007 | 37068 ft | 466 kts | 162° |
| 2026-05-04 15:45 | 39.43409 | 25.43524 | 37075 ft | 468 kts | 162° |
| 2026-05-04 15:46 | 39.37187 | 25.46042 | 37074 ft | 469 kts | 162° |
| 2026-05-04 15:46 | 39.30941 | 25.48564 | 37074 ft | 471 kts | 162° |
| 2026-05-04 15:47 | 39.24655 | 25.51099 | 37086 ft | 476 kts | 163° |
| 2026-05-04 15:47 | 39.18293 | 25.53659 | 37085 ft | 482 kts | 163° |
| 2026-05-04 15:48 | 39.11858 | 25.56242 | 37082 ft | 487 kts | 163° |
| 2026-05-04 15:48 | 39.02093 | 25.59882 | 37073 ft | 491 kts | 164° |
| 2026-05-04 15:49 | 38.95502 | 25.62251 | 37080 ft | 493 kts | 164° |
| 2026-05-04 15:49 | 38.88890 | 25.64645 | 37090 ft | 494 kts | 164° |
| 2026-05-04 15:50 | 38.82279 | 25.67055 | 37072 ft | 495 kts | 164° |
| 2026-05-04 15:50 | 38.75659 | 25.69472 | 37077 ft | 495 kts | 164° |
| 2026-05-04 15:51 | 38.69036 | 25.71883 | 37076 ft | 495 kts | 164° |
| 2026-05-04 15:51 | 38.62416 | 25.74285 | 37079 ft | 494 kts | 164° |
| 2026-05-04 15:52 | 38.55799 | 25.76681 | 37074 ft | 494 kts | 164° |
| 2026-05-04 15:52 | 38.49180 | 25.79074 | 37078 ft | 494 kts | 164° |
| 2026-05-04 15:53 | 38.42567 | 25.81461 | 37076 ft | 494 kts | 164° |
| 2026-05-04 15:53 | 38.35950 | 25.83845 | 37070 ft | 494 kts | 165° |
| 2026-05-04 15:54 | 38.29326 | 25.86226 | 37077 ft | 495 kts | 165° |
| 2026-05-04 15:54 | 38.22702 | 25.88604 | 37077 ft | 495 kts | 165° |
| 2026-05-04 15:55 | 38.16069 | 25.90979 | 37075 ft | 495 kts | 165° |
| 2026-05-04 15:55 | 38.09432 | 25.93352 | 37070 ft | 496 kts | 165° |
| 2026-05-04 15:56 | 38.02778 | 25.95726 | 37088 ft | 497 kts | 165° |
| 2026-05-04 15:56 | 37.96112 | 25.98100 | 37076 ft | 498 kts | 165° |
| 2026-05-04 15:57 | 37.89447 | 26.00470 | 37062 ft | 498 kts | 165° |
| 2026-05-04 15:57 | 37.82813 | 26.02824 | 37076 ft | 499 kts | 165° |
| 2026-05-04 15:58 | 37.76127 | 26.05191 | 37074 ft | 499 kts | 165° |
| 2026-05-04 15:58 | 37.69431 | 26.07558 | 37074 ft | 500 kts | 165° |
| 2026-05-04 15:59 | 37.62732 | 26.09922 | 37074 ft | 500 kts | 165° |
| 2026-05-04 15:59 | 37.56028 | 26.12283 | 37088 ft | 501 kts | 165° |
| 2026-05-04 16:00 | 37.49313 | 26.14643 | 37075 ft | 501 kts | 165° |
| 2026-05-04 16:00 | 37.42603 | 26.16998 | 37063 ft | 501 kts | 165° |
| 2026-05-04 16:01 | 37.35887 | 26.19349 | 37070 ft | 501 kts | 165° |
| 2026-05-04 16:01 | 37.29175 | 26.21695 | 37067 ft | 501 kts | 165° |
| 2026-05-04 16:02 | 37.22460 | 26.24038 | 37070 ft | 501 kts | 165° |
| 2026-05-04 16:03 | 37.12382 | 26.27546 | 37073 ft | 501 kts | 166° |
| 2026-05-04 16:03 | 37.05662 | 26.29880 | 37068 ft | 501 kts | 166° |
| 2026-05-04 16:04 | 36.98947 | 26.32208 | 37066 ft | 501 kts | 166° |
| 2026-05-04 16:04 | 36.88870 | 26.35693 | 37067 ft | 501 kts | 166° |
| 2026-05-04 16:05 | 36.83291 | 26.37619 | 37064 ft | 501 kts | 166° |
| 2026-05-04 16:06 | 36.73219 | 26.41087 | 37043 ft | 500 kts | 167° |
| 2026-05-04 16:07 | 36.59787 | 26.45697 | 37063 ft | 501 kts | 167° |
| 2026-05-04 16:08 | 36.46335 | 26.50299 | 37047 ft | 502 kts | 167° |
| 2026-05-04 16:09 | 36.29437 | 26.56055 | 37062 ft | 505 kts | 167° |
| 2026-05-04 16:10 | 36.15858 | 26.60663 | 37066 ft | 506 kts | 167° |
| 2026-05-04 16:11 | 36.02247 | 26.65265 | 37061 ft | 507 kts | 167° |
| 2026-05-04 16:12 | 35.81827 | 26.72138 | 37060 ft | 507 kts | 168° |
| 2026-05-04 16:13 | 35.68226 | 26.76695 | 37055 ft | 506 kts | 168° |
| 2026-05-04 16:14 | 35.54683 | 26.81217 | 37058 ft | 506 kts | 168° |
| 2026-05-04 16:16 | 35.37707 | 26.86862 | 37068 ft | 506 kts | 169° |
| 2026-05-04 16:17 | 35.20718 | 26.92488 | 37053 ft | 505 kts | 169° |
| 2026-05-04 16:18 | 35.07167 | 26.96958 | 37062 ft | 504 kts | 169° |
| 2026-05-04 16:19 | 34.90234 | 27.02520 | 37066 ft | 504 kts | 170° |
| 2026-05-04 16:20 | 34.73276 | 27.08068 | 37068 ft | 505 kts | 171° |
| 2026-05-04 16:22 | 34.56257 | 27.13611 | 37069 ft | 507 kts | 171° |
| 2026-05-04 16:23 | 34.35841 | 27.20232 | 37080 ft | 507 kts | 171° |
| 2026-05-04 16:25 | 34.15371 | 27.26834 | 37075 ft | 505 kts | 171° |
| 2026-05-04 16:26 | 33.91953 | 27.35682 | 37083 ft | 519 kts | 152° |
| 2026-05-04 16:28 | 33.77008 | 27.47951 | 37079 ft | 520 kts | 151° |
| 2026-05-04 16:29 | 33.55995 | 27.64790 | 37090 ft | 519 kts | 152° |
| 2026-05-04 16:31 | 33.40985 | 27.76747 | 37094 ft | 517 kts | 152° |
| 2026-05-04 16:32 | 33.22986 | 27.91022 | 37092 ft | 518 kts | 152° |
| 2026-05-04 16:33 | 33.10985 | 28.00501 | 37096 ft | 517 kts | 152° |
| 2026-05-04 16:34 | 33.01986 | 28.07588 | 37111 ft | 516 kts | 152° |
| 2026-05-04 16:35 | 32.84024 | 28.21681 | 37080 ft | 514 kts | 153° |
| 2026-05-04 16:36 | 32.75078 | 28.28674 | 37105 ft | 513 kts | 153° |
| 2026-05-04 16:37 | 32.66136 | 28.35646 | 37097 ft | 512 kts | 153° |
| 2026-05-04 16:38 | 32.54262 | 28.44877 | 37102 ft | 512 kts | 153° |
| 2026-05-04 16:39 | 32.39373 | 28.56412 | 37099 ft | 512 kts | 153° |
| 2026-05-04 16:40 | 32.27453 | 28.65613 | 37070 ft | 511 kts | 153° |
| 2026-05-04 16:41 | 32.12577 | 28.77057 | 37108 ft | 510 kts | 153° |
| 2026-05-04 16:43 | 31.97690 | 28.88462 | 37065 ft | 510 kts | 153° |
| 2026-05-04 16:43 | 31.88772 | 28.95273 | 37102 ft | 509 kts | 153° |
| 2026-05-04 16:45 | 31.70698 | 29.08045 | 37099 ft | 505 kts | 155° |
| 2026-05-04 16:46 | 31.55946 | 29.19363 | 37110 ft | 506 kts | 154° |
| 2026-05-04 16:47 | 31.44026 | 29.28117 | 37111 ft | 505 kts | 155° |
| 2026-05-04 16:48 | 31.32109 | 29.36798 | 37100 ft | 503 kts | 155° |
| 2026-05-04 16:49 | 31.20228 | 29.45441 | 37112 ft | 503 kts | 155° |
| 2026-05-04 16:50 | 31.08387 | 29.54031 | 37082 ft | 503 kts | 155° |
| 2026-05-04 16:51 | 30.99486 | 29.60472 | 37107 ft | 502 kts | 155° |
| 2026-05-04 16:52 | 30.88568 | 29.68351 | 37107 ft | 502 kts | 155° |
| 2026-05-04 16:53 | 30.79660 | 29.74764 | 37076 ft | 502 kts | 156° |
| 2026-05-04 16:54 | 30.67756 | 29.83311 | 37096 ft | 504 kts | 156° |
| 2026-05-04 16:55 | 30.49885 | 29.96098 | 37045 ft | 505 kts | 156° |
| 2026-05-04 16:56 | 30.34950 | 30.06741 | 37097 ft | 504 kts | 156° |
| 2026-05-04 16:57 | 30.25976 | 30.13116 | 37091 ft | 504 kts | 156° |
| 2026-05-04 16:58 | 30.14034 | 30.21583 | 37086 ft | 502 kts | 156° |
| 2026-05-04 17:00 | 29.96159 | 30.34190 | 37081 ft | 502 kts | 157° |
| 2026-05-04 17:01 | 29.81286 | 30.44655 | 37068 ft | 500 kts | 157° |
| 2026-05-04 17:02 | 29.69431 | 30.52968 | 37078 ft | 499 kts | 157° |
| 2026-05-04 17:03 | 29.60546 | 30.59182 | 37077 ft | 498 kts | 157° |
| 2026-05-04 17:03 | 29.51661 | 30.65384 | 37076 ft | 498 kts | 157° |
| 2026-05-04 17:04 | 29.39855 | 30.73605 | 37079 ft | 498 kts | 157° |
| 2026-05-04 17:05 | 29.28005 | 30.81834 | 37044 ft | 497 kts | 158° |
| 2026-05-04 17:06 | 29.19130 | 30.87983 | 37081 ft | 497 kts | 158° |
| 2026-05-04 17:07 | 29.11207 | 30.93461 | 37082 ft | 498 kts | 158° |
| 2026-05-04 17:07 | 29.04318 | 30.98217 | 37086 ft | 497 kts | 158° |
| 2026-05-04 17:08 | 28.95447 | 31.04331 | 37087 ft | 495 kts | 158° |
| 2026-05-04 17:09 | 28.89539 | 31.08395 | 37099 ft | 495 kts | 158° |
| 2026-05-04 17:09 | 28.83632 | 31.12452 | 37090 ft | 495 kts | 158° |
| 2026-05-04 17:10 | 28.69043 | 31.22961 | 37092 ft | 508 kts | 146° |
| 2026-05-04 17:11 | 28.64161 | 31.28893 | 37094 ft | 515 kts | 139° |
| 2026-05-04 17:12 | 28.57057 | 31.38077 | 37098 ft | 515 kts | 139° |
| 2026-05-04 17:13 | 28.45064 | 31.53172 | 37094 ft | 514 kts | 140° |
| 2026-05-04 17:14 | 28.35450 | 31.65199 | 37105 ft | 514 kts | 140° |
| 2026-05-04 17:15 | 28.28281 | 31.74153 | 37108 ft | 512 kts | 140° |
| 2026-05-04 17:16 | 28.18687 | 31.86101 | 37101 ft | 512 kts | 140° |
| 2026-05-04 17:17 | 28.09086 | 31.98027 | 37097 ft | 512 kts | 140° |
| 2026-05-04 17:17 | 28.02152 | 32.07278 | 37088 ft | 524 kts | 127° |
| 2026-05-04 17:18 | 28.00356 | 32.10891 | 37104 ft | 527 kts | 125° |
| 2026-05-04 17:19 | 27.93473 | 32.25571 | 37074 ft | 528 kts | 124° |
| 2026-05-04 17:20 | 27.86446 | 32.40143 | 37041 ft | 528 kts | 125° |
| 2026-05-04 17:20 | 27.81145 | 32.51057 | 37042 ft | 529 kts | 125° |
| 2026-05-04 17:21 | 27.74057 | 32.65629 | 36959 ft | 525 kts | 126° |
| 2026-05-04 17:22 | 27.72318 | 32.69207 | 36613 ft | 517 kts | 125° |
| 2026-05-04 17:22 | 27.70592 | 32.72752 | 36021 ft | 516 kts | 125° |
| 2026-05-04 17:23 | 27.65356 | 32.83448 | 33913 ft | 520 kts | 124° |
| 2026-05-04 17:23 | 27.63606 | 32.87020 | 33101 ft | 521 kts | 124° |
| 2026-05-04 17:23 | 27.60100 | 32.94173 | 31438 ft | 521 kts | 123° |
| 2026-05-04 17:24 | 27.58367 | 32.97705 | 30579 ft | 523 kts | 123° |
| 2026-05-04 17:24 | 27.53022 | 33.08578 | 27380 ft | 529 kts | 123° |
| 2026-05-04 17:25 | 27.51236 | 33.12206 | 26276 ft | 530 kts | 123° |
| 2026-05-04 17:25 | 27.47683 | 33.19417 | 24474 ft | 525 kts | 123° |
| 2026-05-04 17:26 | 27.44195 | 33.26489 | 23152 ft | 509 kts | 123° |
| 2026-05-04 17:26 | 27.39073 | 33.36836 | 20684 ft | 496 kts | 123° |
| 2026-05-04 17:27 | 27.35183 | 33.43014 | 19147 ft | 480 kts | 136° |
| 2026-05-04 17:27 | 27.30754 | 33.48432 | 17510 ft | 460 kts | 137° |
| 2026-05-04 17:28 | 27.26485 | 33.53717 | 15096 ft | 452 kts | 136° |
| 2026-05-04 17:29 | 27.20376 | 33.61502 | 11887 ft | 432 kts | 135° |
| 2026-05-04 17:29 | 27.14456 | 33.68766 | 8820 ft | 407 kts | 143° |
| 2026-05-04 17:30 | 27.07290 | 33.72703 | 6873 ft | 354 kts | 165° |
| 2026-05-04 17:31 | 27.02745 | 33.74383 | 5488 ft | 342 kts | 165° |
| 2026-05-04 17:31 | 26.96461 | 33.76607 | 4892 ft | 289 kts | 165° |
| 2026-05-04 17:32 | 26.93490 | 33.79284 | 4403 ft | 286 kts | 106° |
| 2026-05-04 17:33 | 26.95213 | 33.85098 | 3965 ft | 271 kts | 33° |
| 2026-05-04 17:33 | 26.96876 | 33.86001 | 3665 ft | 263 kts | 9° |
| 2026-05-04 17:34 | 27.01905 | 33.84920 | 2845 ft | 234 kts | 338° |
| 2026-05-04 17:34 | 27.03426 | 33.84382 | 2585 ft | 224 kts | 343° |
| 2026-05-04 17:35 | 27.07556 | 33.83163 | 1775 ft | 185 kts | 343° |
| 2026-05-04 17:35 | 27.09889 | 33.82468 | 1337 ft | 163 kts | 343° |
| 2026-05-04 17:35 | 27.10941 | 33.82154 | 1130 ft | 151 kts | 341° |
| 2026-05-04 17:36 | 27.11587 | 33.81960 | 1016 ft | 140 kts | 342° |
| 2026-05-04 17:36 | 27.12525 | 33.81684 | 752 ft | 141 kts | 342° |
| 2026-05-04 17:36 | 27.13454 | 33.81410 | 606 ft | 134 kts | 343° |
| 2026-05-04 17:36 | 27.14371 | 33.81137 | 467 ft | 137 kts | 342° |
| 2026-05-04 17:37 | 27.15288 | 33.80865 | 302 ft | 135 kts | 341° |
| 2026-05-04 17:37 | 27.16156 | 33.80601 | 84 ft | 124 kts | 343° |
| 2026-05-04 17:37 | 27.16947 | 33.80361 | 45 ft | 105 kts | 346° |
| 2026-05-04 17:37 | 27.17536 | 33.80191 | 51 ft | 70 kts | 344° |
| 2026-05-04 17:38 | 27.17865 | 33.80094 | 50 ft | 39 kts | 344° |
| 2026-05-04 17:38 | 27.18071 | 33.80035 | 49 ft | 23 kts | 345° |
| 2026-05-04 17:38 | 27.18223 | 33.79988 | 50 ft | 22 kts | 347° |
| 2026-05-04 17:38 | 27.18372 | 33.79945 | 49 ft | 22 kts | 344° |
| 2026-05-04 17:39 | 27.18469 | 33.80056 | 48 ft | 12 kts | 93° |
| 2026-05-04 17:39 | 27.18413 | 33.80106 | 49 ft | 11 kts | 168° |
| 2026-05-04 17:39 | 27.18339 | 33.80130 | 50 ft | 11 kts | 162° |
| 2026-05-04 17:40 | 27.18266 | 33.80151 | 51 ft | 11 kts | 168° |
| 2026-05-04 17:40 | 27.18195 | 33.80172 | 51 ft | 10 kts | 154° |
| 2026-05-04 17:40 | 27.18177 | 33.80242 | 55 ft | 10 kts | 74° |
| 2026-05-04 17:40 | 27.18199 | 33.80328 | 51 ft | 14 kts | 74° |
| 2026-05-04 17:41 | 27.18169 | 33.80427 | 56 ft | 18 kts | 162° |
| 2026-05-04 17:41 | 27.18046 | 33.80465 | 56 ft | 16 kts | 165° |
| 2026-05-04 17:41 | 27.17985 | 33.80482 | 55 ft | 1 kts | 169° |
| 2026-05-04 17:41 | 27.17972 | 33.80461 | 56 ft | 5 kts | 260° |
| 2026-05-04 17:42 | 27.17966 | 33.80424 | 53 ft | 5 kts | 256° |
| 2026-05-04 17:42 | 27.17961 | 33.80404 | 51 ft | 2 kts | 253° |
| 2026-05-04 17:42 | 27.17960 | 33.80403 | 51 ft | 0 kts | 253° |
| 2026-05-04 17:43 | 27.17961 | 33.80403 | 51 ft | 0 kts | 253° |
| 2026-05-04 17:43 | 27.17960 | 33.80403 | 51 ft | 0 kts | 253° |
| 2026-05-04 17:43 | 27.17961 | 33.80403 | 51 ft | 0 kts | 253° |
| 2026-05-04 17:44 | 27.17960 | 33.80403 | 51 ft | 0 kts | 253° |
| 2026-05-04 17:44 | 27.17961 | 33.80403 | 51 ft | 0 kts | 253° |
| 2026-05-04 17:44 | 27.17960 | 33.80403 | 51 ft | 0 kts | 253° |
| 2026-05-04 17:45 | 27.17961 | 33.80403 | 51 ft | 0 kts | 253° |
| 2026-05-04 17:45 | 27.17960 | 33.80403 | 51 ft | 0 kts | 253° |
| 2026-05-04 17:46 | 27.17961 | 33.80403 | 51 ft | 0 kts | 253° |
| 2026-05-04 17:46 | 27.17960 | 33.80403 | 51 ft | 0 kts | 253° |
| 2026-05-04 17:48 | 27.17961 | 33.80403 | 51 ft | 0 kts | 253° |
| 2026-05-04 17:48 | 27.17960 | 33.80403 | 51 ft | 0 kts | 253° |
| 2026-05-04 17:52 | 27.17961 | 33.80403 | 51 ft | 0 kts | 253° |
| 2026-05-04 17:52 | 27.17960 | 33.80403 | 51 ft | 0 kts | 253° |
| 2026-05-04 17:53 | 27.17961 | 33.80403 | 51 ft | 0 kts | 253° |
| 2026-05-04 17:53 | 27.17960 | 33.80403 | 51 ft | 0 kts | 253° |
| 2026-05-04 17:54 | 27.17961 | 33.80403 | 51 ft | 0 kts | 253° |